createdAt,value
2018-03-15T00:00:39.015Z,2.30
2018-03-15T00:03:13.046Z,2.30
2018-03-15T00:05:41.744Z,2.30
2018-03-15T00:08:10.072Z,2.20
2018-03-15T00:10:38.511Z,2.20
2018-03-15T00:13:06.944Z,2.20
2018-03-15T00:15:36.073Z,2.20
2018-03-15T00:18:04.449Z,2.10
2018-03-15T00:20:32.843Z,2.10
2018-03-15T00:23:01.331Z,2.10
2018-03-15T00:25:29.688Z,2.10
2018-03-15T00:27:58.040Z,2.10
2018-03-15T00:30:27.147Z,2.00
2018-03-15T00:32:55.504Z,2.00
2018-03-15T00:35:24.599Z,2.00
2018-03-15T00:37:53.711Z,2.00
2018-03-15T00:40:22.060Z,2.00
2018-03-15T00:42:50.491Z,2.00
2018-03-15T00:45:18.845Z,2.00
2018-03-15T00:47:47.979Z,2.00
2018-03-15T00:50:16.324Z,2.00
2018-03-15T00:52:44.712Z,2.00
2018-03-15T00:55:13.210Z,2.00
2018-03-15T00:57:41.542Z,1.90
2018-03-15T01:00:09.912Z,1.90
2018-03-15T01:02:38.337Z,1.90
2018-03-15T01:05:07.065Z,1.90
2018-03-15T01:07:35.463Z,1.90
2018-03-15T01:10:03.898Z,1.90
2018-03-15T01:12:32.265Z,1.80
2018-03-15T01:15:00.600Z,1.90
2018-03-15T01:17:29.028Z,1.80
2018-03-15T01:19:57.568Z,1.80
2018-03-15T01:22:26.292Z,1.80
2018-03-15T01:24:54.683Z,1.80
2018-03-15T01:27:23.025Z,1.80
2018-03-15T01:29:52.287Z,1.80
2018-03-15T01:32:20.624Z,1.70
2018-03-15T01:34:48.968Z,1.80
2018-03-15T01:37:17.303Z,1.80
2018-03-15T01:39:46.089Z,1.70
2018-03-15T01:44:49.192Z,1.70
2018-03-15T01:47:17.528Z,1.70
2018-03-15T01:49:45.959Z,1.70
2018-03-15T01:52:14.312Z,1.70
2018-03-15T01:54:42.901Z,1.70
2018-03-15T01:57:11.248Z,1.80
2018-03-15T01:59:39.589Z,1.80
2018-03-15T02:02:07.933Z,1.80
2018-03-15T02:04:36.303Z,1.80
2018-03-15T02:07:05.411Z,1.80
2018-03-15T02:09:33.770Z,1.70
2018-03-15T02:12:02.872Z,1.80
2018-03-15T02:14:31.980Z,1.70
2018-03-15T02:17:00.444Z,1.70
2018-03-15T02:19:29.557Z,1.80
2018-03-15T02:21:57.917Z,1.80
2018-03-15T02:24:26.377Z,1.80
2018-03-15T02:26:54.720Z,1.80
2018-03-15T02:29:23.083Z,1.80
2018-03-15T02:31:51.443Z,1.80
2018-03-15T02:34:19.806Z,1.80
2018-03-15T02:36:48.155Z,1.80
2018-03-15T02:39:16.502Z,1.80
2018-03-15T02:44:19.514Z,1.70
2018-03-15T02:46:47.876Z,1.80
2018-03-15T02:49:16.222Z,1.80
2018-03-15T02:51:44.569Z,1.70
2018-03-15T02:54:12.922Z,1.70
2018-03-15T02:56:41.280Z,1.70
2018-03-15T02:59:10.388Z,1.60
2018-03-15T03:01:38.724Z,1.60
2018-03-15T03:04:07.167Z,1.70
2018-03-15T03:06:35.517Z,1.60
2018-03-15T03:09:03.935Z,1.60
2018-03-15T03:11:32.310Z,1.60
2018-03-15T03:14:00.669Z,1.60
2018-03-15T03:16:29.012Z,1.50
2018-03-15T03:18:58.140Z,1.50
2018-03-15T03:21:26.467Z,1.50
2018-03-15T03:23:54.814Z,1.50
2018-03-15T03:26:23.155Z,1.50
2018-03-15T03:28:52.288Z,1.40
2018-03-15T03:31:20.660Z,1.40
2018-03-15T03:33:49.000Z,1.40
2018-03-15T03:36:18.132Z,1.50
2018-03-15T03:38:46.470Z,1.50
2018-03-15T03:41:14.905Z,1.50
2018-03-15T03:43:43.263Z,1.50
2018-03-15T03:46:11.964Z,1.50
2018-03-15T03:48:40.302Z,1.50
2018-03-15T03:51:09.413Z,1.50
2018-03-15T03:53:38.530Z,1.50
2018-03-15T03:56:06.873Z,1.50
2018-03-15T03:58:35.216Z,1.60
2018-03-15T04:01:03.552Z,1.60
2018-03-15T04:03:31.916Z,1.70
2018-03-15T04:06:01.060Z,1.70
2018-03-15T04:08:29.617Z,1.70
2018-03-15T04:10:58.723Z,1.60
2018-03-15T04:13:27.088Z,1.60
2018-03-15T04:15:55.488Z,1.70
2018-03-15T04:18:23.827Z,1.70
2018-03-15T04:20:52.945Z,1.90
2018-03-15T04:23:21.673Z,1.80
2018-03-15T04:25:50.336Z,1.90
2018-03-15T04:28:18.722Z,2.00
2018-03-15T04:30:47.084Z,2.10
2018-03-15T04:33:15.437Z,2.10
2018-03-15T04:35:44.568Z,2.30
2018-03-15T04:38:12.913Z,2.30
2018-03-15T04:40:42.030Z,2.30
2018-03-15T04:43:10.368Z,2.30
2018-03-15T04:45:38.809Z,2.30
2018-03-15T04:48:07.266Z,2.30
2018-03-15T04:50:35.762Z,2.30
2018-03-15T04:53:04.106Z,2.30
2018-03-15T04:55:33.248Z,2.40
2018-03-15T04:58:01.585Z,2.40
2018-03-15T05:00:30.684Z,2.50
2018-03-15T05:02:59.045Z,2.40
2018-03-15T05:05:27.376Z,2.50
2018-03-15T05:07:55.728Z,2.50
2018-03-15T05:10:24.848Z,2.60
2018-03-15T05:12:53.203Z,2.60
2018-03-15T05:15:21.560Z,2.60
2018-03-15T05:17:49.911Z,2.70
2018-03-15T05:20:18.378Z,2.70
2018-03-15T05:22:46.700Z,2.70
2018-03-15T05:25:15.107Z,2.70
2018-03-15T05:27:44.219Z,2.80
2018-03-15T05:30:12.591Z,2.70
2018-03-15T05:32:41.681Z,2.70
2018-03-15T05:35:10.057Z,2.70
2018-03-15T05:37:38.403Z,2.80
2018-03-15T05:40:06.835Z,2.80
2018-03-15T05:42:35.181Z,2.80
2018-03-15T05:45:04.329Z,2.80
2018-03-15T05:47:32.701Z,2.80
2018-03-15T05:50:01.049Z,2.80
2018-03-15T05:52:29.399Z,2.80
2018-03-15T05:54:57.738Z,2.80
2018-03-15T05:57:26.103Z,2.80
2018-03-15T05:59:54.516Z,2.80
2018-03-15T06:02:22.864Z,2.80
2018-03-15T06:04:51.225Z,2.80
2018-03-15T06:07:19.572Z,2.90
2018-03-15T06:09:48.767Z,2.90
2018-03-15T06:12:17.098Z,2.90
2018-03-15T06:14:45.460Z,2.90
2018-03-15T06:17:13.916Z,2.90
2018-03-15T06:19:42.282Z,2.90
2018-03-15T06:22:10.648Z,3.60
2018-03-15T06:24:38.992Z,3.90
2018-03-15T06:27:07.342Z,3.90
2018-03-15T06:29:36.456Z,3.60
2018-03-15T06:32:04.795Z,3.60
2018-03-15T06:34:33.260Z,3.60
2018-03-15T06:37:01.585Z,3.50
2018-03-15T06:39:29.992Z,3.50
2018-03-15T06:41:58.355Z,3.40
2018-03-15T06:44:26.755Z,3.40
2018-03-15T06:46:55.104Z,3.40
2018-03-15T06:49:23.446Z,3.40
2018-03-15T06:51:51.801Z,3.30
2018-03-15T06:54:20.661Z,3.30
2018-03-15T06:56:49.005Z,3.30
2018-03-15T06:59:17.343Z,3.40
2018-03-15T07:01:45.708Z,3.40
2018-03-15T07:04:14.108Z,3.40
2018-03-15T07:06:42.523Z,3.40
2018-03-15T07:09:10.954Z,3.40
2018-03-15T07:11:39.344Z,3.50
2018-03-15T07:14:07.672Z,3.50
2018-03-15T07:16:36.923Z,3.60
2018-03-15T07:19:05.257Z,3.60
2018-03-15T07:21:34.368Z,3.70
2018-03-15T07:24:02.855Z,3.60
2018-03-15T07:26:31.950Z,3.70
2018-03-15T07:29:00.290Z,3.70
2018-03-15T07:31:28.631Z,3.80
2018-03-15T07:33:56.988Z,3.80
2018-03-15T07:36:25.357Z,3.90
2018-03-15T07:38:53.757Z,4.00
2018-03-15T07:41:22.139Z,4.10
2018-03-15T07:43:50.535Z,4.20
2018-03-15T07:46:18.848Z,4.20
2018-03-15T07:48:47.271Z,4.20
2018-03-15T07:51:15.704Z,4.20
2018-03-15T07:53:44.063Z,4.30
2018-03-15T07:56:12.411Z,4.30
2018-03-15T07:58:40.800Z,4.40
2018-03-15T08:01:09.184Z,4.40
2018-03-15T08:03:37.497Z,4.50
2018-03-15T08:06:05.864Z,4.50
2018-03-15T08:08:34.296Z,4.60
2018-03-15T08:11:03.003Z,5.10
2018-03-15T08:13:31.423Z,5.10
2018-03-15T08:15:59.858Z,5.20
2018-03-15T08:18:28.204Z,5.20
2018-03-15T08:20:56.623Z,5.30
2018-03-15T08:23:24.976Z,5.30
2018-03-15T08:25:53.312Z,5.40
2018-03-15T08:28:21.754Z,5.50
2018-03-15T08:30:50.088Z,5.50
2018-03-15T08:33:19.235Z,5.60
2018-03-15T08:35:47.614Z,5.60
2018-03-15T08:38:15.953Z,5.80
2018-03-15T08:40:45.095Z,5.90
2018-03-15T08:43:13.416Z,5.90
2018-03-15T08:45:42.053Z,5.90
2018-03-15T08:48:10.429Z,6.00
2018-03-15T08:50:38.776Z,6.10
2018-03-15T08:53:07.146Z,6.10
2018-03-15T08:55:36.263Z,6.20
2018-03-15T08:58:04.614Z,6.20
2018-03-15T09:00:33.718Z,6.40
2018-03-15T09:03:02.838Z,6.50
2018-03-15T09:05:31.180Z,6.50
2018-03-15T09:07:59.545Z,6.60
2018-03-15T09:10:27.912Z,6.80
2018-03-15T09:12:56.371Z,6.80
2018-03-15T09:15:24.704Z,7.00
2018-03-15T09:17:53.811Z,7.30
2018-03-15T09:20:22.910Z,7.30
2018-03-15T09:22:52.048Z,7.40
2018-03-15T09:25:20.416Z,7.40
2018-03-15T09:27:48.762Z,7.40
2018-03-15T09:30:17.142Z,7.40
2018-03-15T09:32:45.447Z,7.70
2018-03-15T09:35:13.838Z,7.70
2018-03-15T09:37:42.170Z,7.80
2018-03-15T09:40:11.400Z,7.90
2018-03-15T09:42:39.751Z,7.90
2018-03-15T09:45:08.880Z,8.10
2018-03-15T09:47:37.238Z,8.10
2018-03-15T09:50:06.340Z,8.50
2018-03-15T09:52:34.750Z,8.40
2018-03-15T09:55:03.122Z,8.60
2018-03-15T09:57:31.487Z,8.70
2018-03-15T09:59:59.832Z,8.80
2018-03-15T10:02:28.174Z,8.90
2018-03-15T10:04:56.527Z,8.90
2018-03-15T10:07:24.873Z,8.80
2018-03-15T10:09:53.993Z,8.50
2018-03-15T10:12:22.376Z,8.50
2018-03-15T10:14:50.737Z,8.30
2018-03-15T10:17:19.140Z,8.30
2018-03-15T10:19:47.524Z,8.30
2018-03-15T10:22:15.908Z,8.20
2018-03-15T10:24:44.281Z,8.30
2018-03-15T10:27:18.584Z,8.40
2018-03-15T10:29:46.925Z,8.40
2018-03-15T10:32:15.268Z,8.80
2018-03-15T10:34:43.657Z,9.10
2018-03-15T10:37:12.003Z,9.40
2018-03-15T10:39:40.335Z,9.90
2018-03-15T10:42:08.721Z,10.20
2018-03-15T10:44:37.078Z,10.40
2018-03-15T10:47:05.533Z,10.70
2018-03-15T10:49:34.577Z,10.90
2018-03-15T10:52:02.939Z,10.70
2018-03-15T10:54:31.294Z,10.60
2018-03-15T10:56:59.634Z,10.10
2018-03-15T10:59:28.759Z,9.80
2018-03-15T11:02:02.732Z,9.80
2018-03-15T11:04:33.757Z,9.50
2018-03-15T11:07:05.034Z,9.50
2018-03-15T11:09:34.156Z,9.40
2018-03-15T11:12:02.502Z,9.30
2018-03-15T11:14:31.749Z,9.50
2018-03-15T11:17:00.084Z,9.50
2018-03-15T11:19:29.197Z,9.70
2018-03-15T11:21:57.545Z,9.60
2018-03-15T11:24:26.664Z,10.00
2018-03-15T11:26:55.043Z,10.00
2018-03-15T11:29:23.392Z,10.00
2018-03-15T11:31:51.737Z,10.00
2018-03-15T11:34:20.224Z,10.00
2018-03-15T11:36:48.560Z,10.10
2018-03-15T11:39:16.918Z,10.40
2018-03-15T11:41:46.032Z,11.30
2018-03-15T11:44:14.412Z,11.20
2018-03-15T11:46:42.770Z,11.30
2018-03-15T11:49:11.914Z,11.50
2018-03-15T11:51:41.156Z,11.40
2018-03-15T11:54:09.510Z,11.80
2018-03-15T11:56:37.873Z,11.90
2018-03-15T11:59:06.229Z,11.90
2018-03-15T12:01:34.662Z,12.00
2018-03-15T12:04:03.008Z,11.90
2018-03-15T12:06:31.456Z,12.00
2018-03-15T12:08:59.877Z,12.30
2018-03-15T12:11:28.220Z,12.70
2018-03-15T12:13:56.705Z,12.90
2018-03-15T12:16:25.117Z,13.00
2018-03-15T12:18:53.519Z,12.60
2018-03-15T12:21:21.980Z,12.70
2018-03-15T12:23:50.314Z,12.60
2018-03-15T12:26:19.440Z,13.00
2018-03-15T12:28:47.800Z,13.00
2018-03-15T12:31:16.198Z,13.30
2018-03-15T12:33:44.566Z,13.20
2018-03-15T12:36:13.688Z,13.20
2018-03-15T12:38:42.073Z,13.10
2018-03-15T12:41:10.418Z,13.30
2018-03-15T12:43:38.786Z,13.30
2018-03-15T12:46:07.900Z,13.00
2018-03-15T12:48:36.294Z,13.00
2018-03-15T12:51:04.659Z,12.90
2018-03-15T12:53:33.032Z,12.80
2018-03-15T12:56:02.864Z,12.60
2018-03-15T12:58:31.357Z,12.60
2018-03-15T13:00:59.697Z,12.50
2018-03-15T13:03:28.923Z,12.70
2018-03-15T13:05:57.323Z,12.60
2018-03-15T13:08:25.713Z,12.50
2018-03-15T13:10:54.087Z,12.50
2018-03-15T13:13:22.495Z,12.50
2018-03-15T13:15:50.846Z,12.60
2018-03-15T13:18:19.214Z,12.50
2018-03-15T13:20:47.556Z,13.00
2018-03-15T13:23:16.856Z,14.10
2018-03-15T13:25:45.231Z,14.10
2018-03-15T13:28:13.601Z,14.30
2018-03-15T13:30:42.733Z,14.80
2018-03-15T13:33:11.082Z,14.70
2018-03-15T13:35:40.312Z,15.10
2018-03-15T13:38:08.681Z,15.10
2018-03-15T13:40:37.129Z,15.20
2018-03-15T13:43:06.256Z,14.70
2018-03-15T13:45:34.624Z,14.70
2018-03-15T13:48:03.196Z,14.20
2018-03-15T13:50:31.537Z,13.90
2018-03-15T13:52:59.891Z,13.90
2018-03-15T13:55:28.248Z,14.10
2018-03-15T13:57:56.614Z,14.50
2018-03-15T14:00:25.753Z,14.60
2018-03-15T14:02:54.130Z,14.60
2018-03-15T14:05:22.508Z,14.60
2018-03-15T14:07:50.884Z,14.90
2018-03-15T14:10:19.235Z,14.90
2018-03-15T14:12:48.367Z,15.00
2018-03-15T14:15:16.747Z,15.00
2018-03-15T14:17:46.182Z,15.30
2018-03-15T14:20:14.472Z,15.30
2018-03-15T14:22:42.853Z,15.00
2018-03-15T14:25:11.975Z,14.80
2018-03-15T14:27:41.098Z,14.60
2018-03-15T14:30:09.458Z,14.50
2018-03-15T14:32:37.858Z,14.40
2018-03-15T14:35:06.216Z,14.30
2018-03-15T14:37:34.584Z,14.30
2018-03-15T14:40:03.148Z,14.50
2018-03-15T14:42:31.493Z,14.60
2018-03-15T14:44:59.879Z,14.70
2018-03-15T14:47:28.225Z,14.80
2018-03-15T14:49:56.583Z,14.60
2018-03-15T14:52:25.690Z,14.00
2018-03-15T14:54:54.174Z,14.00
2018-03-15T14:57:22.556Z,14.10
2018-03-15T14:59:50.931Z,14.10
2018-03-15T15:02:19.376Z,14.30
2018-03-15T15:04:47.722Z,14.30
2018-03-15T15:07:16.095Z,14.50
2018-03-15T15:09:44.446Z,14.30
2018-03-15T15:12:12.812Z,14.00
2018-03-15T15:14:41.222Z,13.80
2018-03-15T15:17:09.629Z,13.50
2018-03-15T15:19:37.977Z,13.20
2018-03-15T15:22:06.364Z,12.80
2018-03-15T15:24:34.710Z,12.30
2018-03-15T15:27:03.844Z,11.80
2018-03-15T15:29:32.240Z,11.70
2018-03-15T15:32:00.560Z,11.50
2018-03-15T15:34:28.909Z,11.30
2018-03-15T15:36:57.260Z,11.00
2018-03-15T15:39:25.640Z,10.70
2018-03-15T15:41:54.213Z,10.60
2018-03-15T15:44:22.775Z,10.40
2018-03-15T15:46:51.176Z,10.20
2018-03-15T15:49:19.578Z,10.00
2018-03-15T15:51:48.024Z,9.80
2018-03-15T15:54:16.554Z,9.70
2018-03-15T15:56:44.908Z,9.50
2018-03-15T15:59:13.290Z,9.40
2018-03-15T16:01:41.691Z,9.20
2018-03-15T16:04:10.036Z,9.20
2018-03-15T16:06:38.387Z,9.00
2018-03-15T16:09:07.493Z,8.80
2018-03-15T16:11:36.599Z,8.70
2018-03-15T16:14:04.945Z,8.70
2018-03-15T16:16:34.076Z,8.60
2018-03-15T16:19:02.479Z,8.60
2018-03-15T16:21:30.822Z,8.60
2018-03-15T16:23:59.287Z,8.50
2018-03-15T16:26:27.649Z,8.50
2018-03-15T16:28:56.002Z,8.40
2018-03-15T16:31:24.378Z,8.30
2018-03-15T16:33:52.852Z,8.20
2018-03-15T16:36:21.168Z,8.20
2018-03-15T16:38:49.608Z,8.00
2018-03-15T16:41:17.988Z,8.00
2018-03-15T16:43:46.372Z,7.90
2018-03-15T16:46:14.708Z,7.80
2018-03-15T16:48:43.841Z,7.70
2018-03-15T16:51:12.181Z,7.70
2018-03-15T16:53:40.509Z,7.60
2018-03-15T16:56:08.860Z,7.60
2018-03-15T16:58:37.203Z,7.50
2018-03-15T17:01:05.555Z,7.40
2018-03-15T17:03:33.920Z,7.40
2018-03-15T17:06:02.284Z,7.20
2018-03-15T17:08:30.628Z,7.20
2018-03-15T17:10:59.760Z,7.10
2018-03-15T17:13:28.101Z,7.00
2018-03-15T17:15:57.261Z,6.90
2018-03-15T17:18:25.610Z,6.90
2018-03-15T17:20:54.010Z,6.90
2018-03-15T17:23:22.374Z,6.80
2018-03-15T17:25:50.741Z,6.70
2018-03-15T17:28:19.230Z,6.70
2018-03-15T17:30:47.683Z,6.70
2018-03-15T17:33:16.043Z,6.70
2018-03-15T17:35:44.388Z,6.70
2018-03-15T17:38:12.750Z,6.60
2018-03-15T17:40:41.084Z,6.60
2018-03-15T17:43:09.490Z,6.50
2018-03-15T17:45:38.612Z,6.50
2018-03-15T17:48:07.659Z,6.50
2018-03-15T17:50:36.768Z,7.00
2018-03-15T17:53:05.893Z,7.10
2018-03-15T17:55:34.598Z,7.10
2018-03-15T17:58:02.984Z,7.00
2018-03-15T18:00:31.353Z,6.90
2018-03-15T18:02:59.823Z,6.70
2018-03-15T18:05:28.285Z,6.60
2018-03-15T18:07:56.698Z,6.50
2018-03-15T18:10:25.036Z,6.50
2018-03-15T18:12:54.200Z,6.40
2018-03-15T18:15:22.683Z,6.40
2018-03-15T18:17:51.077Z,6.30
2018-03-15T18:20:19.434Z,6.30
2018-03-15T18:22:47.764Z,6.20
2018-03-15T18:25:16.323Z,6.20
2018-03-15T18:27:44.705Z,6.20
2018-03-15T18:30:13.812Z,6.10
2018-03-15T18:32:43.047Z,6.10
2018-03-15T18:35:11.400Z,6.00
2018-03-15T18:37:39.776Z,6.00
2018-03-15T18:40:08.192Z,6.00
2018-03-15T18:42:36.657Z,6.00
2018-03-15T18:45:04.986Z,5.90
2018-03-15T18:47:33.671Z,6.00
2018-03-15T18:50:02.010Z,5.90
2018-03-15T18:52:30.416Z,5.90
2018-03-15T18:54:58.787Z,5.80
2018-03-15T18:57:27.226Z,5.80
2018-03-15T18:59:56.398Z,5.80
2018-03-15T19:02:24.757Z,5.80
2018-03-15T19:04:53.422Z,5.80
2018-03-15T19:07:21.749Z,5.70
2018-03-15T19:09:50.123Z,5.70
2018-03-15T19:12:18.486Z,5.70
2018-03-15T19:17:22.480Z,5.60
2018-03-15T19:19:50.829Z,5.60
2018-03-15T19:22:19.204Z,5.70
2018-03-15T19:24:47.585Z,5.70
2018-03-15T19:27:15.957Z,5.60
2018-03-15T19:29:44.315Z,6.40
2018-03-15T19:32:12.658Z,6.40
2018-03-15T19:34:41.096Z,6.30
2018-03-15T19:37:10.208Z,6.00
2018-03-15T19:39:38.551Z,6.00
2018-03-15T19:42:06.898Z,5.90
2018-03-15T19:44:35.238Z,5.80
2018-03-15T19:47:03.636Z,5.80
2018-03-15T19:49:31.993Z,5.70
2018-03-15T19:52:00.357Z,5.60
2018-03-15T19:54:29.467Z,5.50
2018-03-15T19:56:58.602Z,5.50
2018-03-15T19:59:26.945Z,5.50
2018-03-15T20:01:55.284Z,5.50
2018-03-15T20:04:23.642Z,5.40
2018-03-15T20:06:52.008Z,5.50
2018-03-15T20:09:20.389Z,5.50
2018-03-15T20:11:48.805Z,5.40
2018-03-15T20:14:17.250Z,5.40
2018-03-15T20:16:45.673Z,5.40
2018-03-15T20:19:20.085Z,5.30
2018-03-15T20:21:48.482Z,5.30
2018-03-15T20:24:23.365Z,5.30
2018-03-15T20:26:51.688Z,5.30
2018-03-15T20:29:20.804Z,5.20
2018-03-15T20:31:49.173Z,5.20
2018-03-15T20:34:18.314Z,5.20
2018-03-15T20:36:46.660Z,5.20
2018-03-15T20:42:12.954Z,5.20
2018-03-15T20:44:41.276Z,5.10
2018-03-15T20:47:16.760Z,5.20
2018-03-15T20:49:45.151Z,5.20
2018-03-15T20:52:13.491Z,5.20
2018-03-15T20:54:42.693Z,5.20
2018-03-15T20:57:11.801Z,5.20
2018-03-15T20:59:40.230Z,5.10
2018-03-15T21:02:08.594Z,5.20
2018-03-15T21:04:36.960Z,5.20
2018-03-15T21:07:05.333Z,5.20
2018-03-15T21:09:33.683Z,5.10
2018-03-15T21:12:02.032Z,5.20
2018-03-15T21:14:30.407Z,5.10
2018-03-15T21:16:58.760Z,5.10
2018-03-15T21:19:27.133Z,5.10
2018-03-15T21:21:55.479Z,5.20
2018-03-15T21:24:23.825Z,5.10
2018-03-15T21:26:52.229Z,5.20
2018-03-15T21:29:20.581Z,5.20
2018-03-15T21:31:48.919Z,5.10
2018-03-15T21:34:17.271Z,5.10
2018-03-15T21:36:46.434Z,5.10
2018-03-15T21:39:14.782Z,5.10
2018-03-15T21:41:43.360Z,5.10
2018-03-15T21:44:11.810Z,5.10
2018-03-15T21:46:41.027Z,5.10
2018-03-15T21:49:09.420Z,5.10
2018-03-15T21:51:37.817Z,5.10
2018-03-15T21:54:06.122Z,5.10
2018-03-15T21:56:34.547Z,5.10
2018-03-15T21:59:03.673Z,5.10
2018-03-15T22:01:32.005Z,5.10
2018-03-15T22:04:00.429Z,5.00
2018-03-15T22:06:28.784Z,5.00
2018-03-15T22:08:57.132Z,5.00
2018-03-15T22:11:25.511Z,5.00
2018-03-15T22:13:54.728Z,5.00
2018-03-15T22:16:23.177Z,5.00
2018-03-15T22:18:51.516Z,5.00
2018-03-15T22:21:19.893Z,5.00
2018-03-15T22:23:48.244Z,5.00
2018-03-15T22:26:16.635Z,5.00
2018-03-15T22:28:44.992Z,5.00
2018-03-15T22:31:14.099Z,5.00
2018-03-15T22:33:42.590Z,4.90
2018-03-15T22:36:10.983Z,5.00
2018-03-15T22:38:39.368Z,5.00
2018-03-15T22:41:07.709Z,5.00
2018-03-15T22:43:36.839Z,4.90
2018-03-15T22:46:05.218Z,4.90
2018-03-15T22:48:33.559Z,4.90
2018-03-15T22:51:02.672Z,4.90
2018-03-15T22:53:31.743Z,4.80
2018-03-15T22:56:00.863Z,4.80
2018-03-15T22:58:29.204Z,4.80
2018-03-15T23:00:57.567Z,4.80
2018-03-15T23:03:25.887Z,4.80
2018-03-15T23:05:55.004Z,4.80
2018-03-15T23:08:23.347Z,4.80
2018-03-15T23:10:51.692Z,4.80
2018-03-15T23:13:20.035Z,4.80
2018-03-15T23:15:48.425Z,4.80
2018-03-15T23:18:16.801Z,4.80
2018-03-15T23:20:45.839Z,4.80
2018-03-15T23:23:14.207Z,4.80
2018-03-15T23:25:42.555Z,4.80
2018-03-15T23:28:10.909Z,4.80
2018-03-15T23:30:40.184Z,4.80
2018-03-15T23:33:08.515Z,4.80
2018-03-15T23:35:36.873Z,4.80
2018-03-15T23:38:05.207Z,4.80
2018-03-15T23:40:33.548Z,4.80
2018-03-15T23:43:01.895Z,4.80
2018-03-15T23:45:31.037Z,4.80
2018-03-15T23:47:59.415Z,4.80
2018-03-15T23:50:28.472Z,4.70
2018-03-15T23:52:57.608Z,4.70
2018-03-15T23:55:25.954Z,4.70
2018-03-15T23:57:54.289Z,4.70
